Time;durP1;ratioP1;P1;durP2;ratioP2;P2;SDS_P1;SDS_P2;PMS_P1;PMS_P2;Temp;Humidity;BMP_temperature;BMP_pressure;BME280_temperature;BME280_humidity;BME280_pressure;Samples;Min_cycle;Max_cycle;Signal;HPM_P1;HPM_P2
2023/06/26 00:01:31;;;;;;;5.88;3.10;;;;;;;23.30;nan;62038.63;5092491;28;20213;-63
2023/06/26 00:03:57;;;;;;;5.90;3.33;;;;;;;23.16;nan;62069.63;5092864;28;20161;-64
2023/06/26 00:06:24;;;;;;;10.32;3.72;;;;;;;23.24;nan;62027.13;5092373;28;20260;-63
2023/06/26 00:08:50;;;;;;;6.22;3.60;;;;;;;23.19;nan;62021.44;5092463;28;20542;-64
2023/06/26 00:11:15;;;;;;;6.22;3.30;;;;;;;23.35;nan;62073.53;5092346;28;20176;-63
2023/06/26 00:13:41;;;;;;;5.97;3.30;;;;;;;23.11;nan;61975.28;5092399;28;20624;-63
2023/06/26 00:16:07;;;;;;;7.18;3.40;;;;;;;23.12;nan;62135.44;5092720;28;20223;-63
2023/06/26 00:18:32;;;;;;;5.55;3.35;;;;;;;23.18;nan;62030.16;5092154;28;20295;-63
2023/06/26 00:20:58;;;;;;;6.78;3.30;;;;;;;23.46;nan;62067.28;5092310;28;20268;-63
2023/06/26 00:23:23;;;;;;;6.70;3.95;;;;;;;23.45;nan;62068.72;5092594;28;20170;-63
2023/06/26 00:25:48;;;;;;;7.22;3.75;;;;;;;23.44;nan;62027.91;5092081;28;20589;-64
2023/06/26 00:28:14;;;;;;;8.45;3.83;;;;;;;23.27;nan;62137.47;5091159;28;20231;-63
2023/06/26 00:30:39;;;;;;;6.65;3.80;;;;;;;23.27;nan;62176.56;5092498;28;20219;-64
2023/06/26 00:33:05;;;;;;;8.85;3.67;;;;;;;23.10;nan;62109.69;5092295;28;20513;-64
2023/06/26 00:35:30;;;;;;;5.30;3.30;;;;;;;22.92;nan;62089.75;5092179;28;20177;-63
2023/06/26 00:37:55;;;;;;;5.93;3.42;;;;;;;22.93;nan;61986.66;5091887;28;20687;-63
2023/06/26 00:40:21;;;;;;;6.38;3.88;;;;;;;23.01;nan;61979.53;5092321;28;20176;-62
2023/06/26 00:42:46;;;;;;;7.13;3.45;;;;;;;23.02;nan;61998.94;5091565;28;20223;-63
2023/06/26 00:45:12;;;;;;;6.30;3.60;;;;;;;22.97;nan;61993.25;5092374;28;20170;-64
2023/06/26 00:47:37;;;;;;;6.93;3.28;;;;;;;22.72;nan;61960.72;5092143;28;20607;-63
2023/06/26 00:50:04;;;;;;;6.28;3.63;;;;;;;22.47;nan;61935.47;5092048;28;20169;-64
2023/06/26 00:52:29;;;;;;;5.35;3.28;;;;;;;22.54;nan;61911.59;5091536;28;20528;-63
2023/06/26 00:54:55;;;;;;;8.95;3.88;;;;;;;22.68;nan;61953.00;5091454;28;20173;-63
2023/06/26 00:57:21;;;;;;;5.47;3.38;;;;;;;22.72;nan;61936.72;5090398;28;20208;-63
2023/06/26 00:59:46;;;;;;;10.27;3.88;;;;;;;22.34;nan;61902.47;5091694;28;20625;-63
2023/06/26 01:02:12;;;;;;;6.53;3.90;;;;;;;22.67;nan;61994.09;5091424;28;20212;-63
2023/06/26 01:04:37;;;;;;;8.13;4.00;;;;;;;22.64;nan;62003.72;5091573;28;20183;-63
2023/06/26 01:07:03;;;;;;;5.15;3.42;;;;;;;22.60;nan;61996.56;5092227;28;20177;-63
2023/06/26 01:09:31;;;;;;;9.63;3.45;;;;;;;22.59;nan;61888.63;5091672;28;20165;-63
2023/06/26 01:11:56;;;;;;;6.82;3.40;;;;;;;22.52;nan;61948.38;5091523;28;20185;-63
2023/06/26 01:14:22;;;;;;;7.50;3.90;;;;;;;22.58;nan;61877.06;5091845;28;20521;-62
2023/06/26 01:16:49;;;;;;;8.40;3.70;;;;;;;22.38;nan;61987.16;5091689;28;20702;-63
2023/06/26 01:19:24;;;;;;;7.07;3.78;;;;;;;22.41;nan;62014.00;5091449;28;20173;-63
2023/06/26 01:21:51;;;;;;;10.10;4.38;;;;;;;22.25;nan;61873.44;5091375;28;20625;-63
2023/06/26 01:24:21;;;;;;;8.32;3.42;;;;;;;19.23;nan;63468.34;5091362;28;20264;-62
2023/06/26 01:26:51;;;;;;;9.85;4.10;;;;;;;22.36;nan;62018.72;5091534;28;20252;-63
2023/06/26 01:29:18;;;;;;;7.57;3.78;;;;;;;22.48;nan;61920.97;5091669;28;20231;-62
2023/06/26 01:31:47;;;;;;;8.25;4.00;;;;;;;19.10;nan;63367.69;5091448;28;20545;-63
2023/06/26 01:34:14;;;;;;;8.00;4.30;;;;;;;22.30;nan;61879.69;5091407;28;20230;-64
2023/06/26 01:36:40;;;;;;;10.20;4.72;;;;;;;22.06;nan;61771.75;5091018;28;20202;-63
2023/06/26 01:39:05;;;;;;;10.38;4.55;;;;;;;21.62;nan;62039.69;5090865;28;20265;-63
2023/06/26 01:41:31;;;;;;;7.80;3.85;;;;;;;22.24;nan;61914.53;5095323;28;20582;-63
2023/06/26 01:44:02;;;;;;;9.52;4.82;;;;;;;22.48;nan;61993.31;5095314;28;20184;-63
2023/06/26 01:46:33;;;;;;;6.95;3.97;;;;;;;22.50;nan;61898.69;5095298;28;20406;-62
2023/06/26 01:49:06;;;;;;;7.32;4.00;;;;;;;22.44;nan;61929.44;5094986;28;20184;-63
2023/06/26 01:51:45;;;;;;;10.10;4.70;;;;;;;22.54;nan;61922.03;5094809;28;20173;-62
2023/06/26 01:54:19;;;;;;;7.60;4.10;;;;;;;22.24;nan;61874.91;5095099;28;20173;-62
2023/06/26 01:56:49;;;;;;;9.55;4.78;;;;;;;22.52;nan;61930.16;5094941;28;20193;-63
2023/06/26 01:59:14;;;;;;;6.88;3.90;;;;;;;22.40;nan;61990.00;5094810;28;20544;-63
2023/06/26 02:01:40;;;;;;;8.05;4.60;;;;;;;22.35;nan;61861.38;5094575;28;20221;-63
2023/06/26 02:04:05;;;;;;;9.82;4.88;;;;;;;22.35;nan;62140.53;5094644;28;20168;-63
2023/06/26 02:06:31;;;;;;;8.10;4.35;;;;;;;22.40;nan;61973.81;5095067;28;20531;-63
2023/06/26 02:08:56;;;;;;;7.78;4.53;;;;;;;22.26;nan;61957.88;5094732;28;20177;-64
2023/06/26 02:11:23;;;;;;;8.23;4.45;;;;;;;22.60;nan;61949.13;5094697;28;20165;-63
2023/06/26 02:13:48;;;;;;;11.93;5.07;;;;;;;22.33;nan;61987.25;5094643;28;20180;-64
2023/06/26 02:16:13;;;;;;;12.13;5.00;;;;;;;22.59;nan;61921.91;5094562;28;20629;-63
2023/06/26 02:18:39;;;;;;;10.82;5.03;;;;;;;22.48;nan;62107.91;5093944;28;20198;-63
2023/06/26 02:21:04;;;;;;;9.07;4.72;;;;;;;22.28;nan;61874.81;5094851;28;20205;-62
2023/06/26 02:23:30;;;;;;;6.95;4.45;;;;;;;22.43;nan;61930.34;5094566;28;20166;-62
2023/06/26 02:25:55;;;;;;;8.80;4.80;;;;;;;22.26;nan;61979.28;5094884;28;20208;-63
2023/06/26 02:28:20;;;;;;;9.77;5.18;;;;;;;22.54;nan;61953.28;5094302;28;20602;-63
2023/06/26 02:30:46;;;;;;;8.50;4.80;;;;;;;22.34;nan;62019.03;5094289;28;20181;-64
2023/06/26 02:33:11;;;;;;;8.63;4.72;;;;;;;22.46;nan;61871.84;5094320;28;20165;-63
2023/06/26 02:35:37;;;;;;;10.18;5.38;;;;;;;22.34;nan;61998.78;5093637;28;20280;-63
2023/06/26 02:38:02;;;;;;;10.55;5.20;;;;;;;22.33;nan;61926.81;5093880;28;20574;-64
2023/06/26 02:40:28;;;;;;;12.77;5.45;;;;;;;22.12;nan;61863.88;5093773;28;20248;-63
2023/06/26 02:42:53;;;;;;;9.43;5.18;;;;;;;22.08;nan;61843.72;5094203;28;20194;-63
2023/06/26 02:45:18;;;;;;;10.70;5.40;;;;;;;22.13;nan;61985.31;5093789;28;20200;-63
2023/06/26 02:47:44;;;;;;;9.30;5.30;;;;;;;22.33;nan;61924.19;5093257;28;20231;-64
2023/06/26 02:50:09;;;;;;;12.57;5.55;;;;;;;22.27;nan;61857.50;5093654;28;20527;-64
2023/06/26 02:52:35;;;;;;;9.30;5.05;;;;;;;22.02;nan;61920.75;5093736;28;20193;-63
2023/06/26 02:55:00;;;;;;;10.65;5.78;;;;;;;21.95;nan;61928.97;5093204;28;20231;-62
2023/06/26 02:57:26;;;;;;;10.57;5.30;;;;;;;22.34;nan;61894.66;5093490;28;20228;-63
2023/06/26 02:59:51;;;;;;;11.48;5.75;;;;;;;22.24;nan;61813.00;5092498;28;20629;-63
2023/06/26 03:02:16;;;;;;;10.35;5.05;;;;;;;22.18;nan;61816.03;5093115;28;20248;-63
2023/06/26 03:04:42;;;;;;;11.43;5.28;;;;;;;22.45;nan;61849.28;5093653;28;20221;-64
2023/06/26 03:07:08;;;;;;;10.02;5.57;;;;;;;22.24;nan;61940.00;5092839;28;20313;-63
2023/06/26 03:09:34;;;;;;;11.57;5.65;;;;;;;22.50;nan;61844.00;5092459;28;20169;-62
2023/06/26 03:11:59;;;;;;;10.13;5.38;;;;;;;22.32;nan;61980.34;5093609;28;20180;-63
2023/06/26 03:14:26;;;;;;;9.75;5.43;;;;;;;22.62;nan;61910.25;5093135;28;20183;-62
2023/06/26 03:16:52;;;;;;;8.82;4.85;;;;;;;22.43;nan;61992.84;5092976;28;20205;-63
2023/06/26 03:19:18;;;;;;;9.68;5.57;;;;;;;22.67;nan;61910.16;5093628;28;20169;-63
2023/06/26 03:21:43;;;;;;;9.73;5.07;;;;;;;22.51;nan;61884.19;5093450;28;20539;-63
2023/06/26 03:24:09;;;;;;;12.77;5.60;;;;;;;22.55;nan;61888.72;5093356;28;20248;-63
2023/06/26 03:26:34;;;;;;;16.15;5.28;;;;;;;23.11;nan;61986.28;5093208;28;20170;-64
2023/06/26 03:28:59;;;;;;;10.88;5.05;;;;;;;23.33;nan;62068.69;5093503;28;20162;-63
2023/06/26 03:31:25;;;;;;;11.98;5.25;;;;;;;23.30;nan;62054.84;5093416;28;20189;-64
2023/06/26 03:33:50;;;;;;;13.77;5.70;;;;;;;22.72;nan;62165.97;5093139;28;20191;-63
2023/06/26 03:36:16;;;;;;;10.05;5.35;;;;;;;23.27;nan;62114.00;5092702;28;20181;-64
2023/06/26 03:38:41;;;;;;;12.52;6.03;;;;;;;23.30;nan;62036.00;5093045;28;20637;-64
2023/06/26 03:41:06;;;;;;;12.43;5.60;;;;;;;23.32;nan;62033.06;5093036;28;20165;-64
2023/06/26 03:43:32;;;;;;;10.98;5.60;;;;;;;23.10;nan;62008.03;4824291;28;20192;-63
2023/06/26 03:45:57;;;;;;;9.60;5.18;;;;;;;23.29;nan;62027.63;5093143;28;20197;-63
2023/06/26 03:48:23;;;;;;;9.45;5.05;;;;;;;23.34;nan;62309.75;5092704;28;20165;-64
2023/06/26 03:50:49;;;;;;;10.25;5.32;;;;;;;23.69;nan;62101.28;5093309;28;20620;-63
2023/06/26 03:53:14;;;;;;;8.55;5.00;;;;;;;23.64;nan;62053.84;5093069;28;20173;-63
2023/06/26 03:55:40;;;;;;;12.30;5.40;;;;;;;24.31;nan;62147.28;5093087;28;20189;-62
2023/06/26 03:58:05;;;;;;;10.27;5.43;;;;;;;24.32;nan;62169.34;5092657;28;20223;-64
2023/06/26 04:00:30;;;;;;;11.45;5.63;;;;;;;24.14;nan;62264.25;5092497;28;20173;-64
2023/06/26 04:02:57;;;;;;;10.27;5.05;;;;;;;24.73;nan;62239.00;5092221;28;20228;-63
2023/06/26 04:05:23;;;;;;;9.27;5.15;;;;;;;24.92;nan;62459.44;5093021;28;20150;-64
2023/06/26 04:07:52;;;;;;;11.05;5.40;;;;;;;25.50;nan;62453.97;5091666;28;20170;-63
2023/06/26 04:10:17;;;;;;;10.50;5.38;;;;;;;25.75;nan;62448.56;5092016;28;20169;-63
2023/06/26 04:12:43;;;;;;;9.27;4.90;;;;;;;26.24;nan;62726.78;5092168;28;20238;-62
2023/06/26 04:15:09;;;;;;;11.98;5.32;;;;;;;26.42;nan;62568.03;5092176;28;20177;-64
2023/06/26 04:17:34;;;;;;;12.57;5.93;;;;;;;25.58;nan;62441.63;5092584;28;20701;-63
2023/06/26 04:19:59;;;;;;;8.90;5.53;;;;;;;26.35;nan;62768.22;5092334;28;20181;-64
2023/06/26 04:22:25;;;;;;;10.63;5.50;;;;;;;26.06;nan;62372.84;5092135;28;20684;-63
2023/06/26 04:24:51;;;;;;;10.88;5.82;;;;;;;27.09;nan;62583.88;5092331;28;20649;-63
2023/06/26 04:27:17;;;;;;;10.65;5.45;;;;;;;28.30;nan;62739.16;5092094;28;20172;-63
2023/06/26 04:29:43;;;;;;;11.57;5.35;;;;;;;28.32;nan;62726.25;5091882;28;20544;-62
2023/06/26 04:32:08;;;;;;;12.02;6.15;;;;;;;29.31;nan;62832.81;5091938;28;20559;-64
2023/06/26 04:34:35;;;;;;;10.15;5.65;;;;;;;30.35;nan;63075.03;5090815;28;20177;-61
2023/06/26 04:37:03;;;;;;;8.27;5.15;;;;;;;30.44;nan;63124.97;5091571;28;20199;-62
2023/06/26 04:39:30;;;;;;;9.25;5.35;;;;;;;29.35;nan;62898.00;5091831;28;20212;-62
2023/06/26 04:41:55;;;;;;;7.47;5.03;;;;;;;29.08;nan;62866.97;5091556;28;20176;-62
2023/06/26 04:44:21;;;;;;;9.98;5.70;;;;;;;28.61;nan;62890.44;5091608;28;20173;-62
2023/06/26 04:46:46;;;;;;;10.32;6.15;;;;;;;29.30;nan;62810.59;5091530;28;20614;-62
2023/06/26 04:49:11;;;;;;;9.88;5.60;;;;;;;28.46;nan;62852.75;5091676;28;20293;-61
2023/06/26 04:51:40;;;;;;;10.90;5.18;;;;;;;29.92;nan;63022.97;5091972;28;20550;-62
2023/06/26 04:54:10;;;;;;;10.43;5.88;;;;;;;29.23;nan;62834.72;5091396;28;20187;-62
2023/06/26 04:56:35;;;;;;;10.85;5.85;;;;;;;29.04;nan;62820.25;5091529;28;20172;-62
2023/06/26 04:59:01;;;;;;;10.40;5.60;;;;;;;29.35;nan;62982.25;5091182;28;20567;-63
2023/06/26 05:01:29;;;;;;;9.05;5.40;;;;;;;28.91;nan;62882.81;5087362;28;20177;-62
2023/06/26 05:04:01;;;;;;;12.43;6.20;;;;;;;28.60;nan;62757.78;5071455;28;20169;-62
2023/06/26 05:06:26;;;;;;;8.77;5.28;;;;;;;28.36;nan;62693.44;5071447;28;20193;-62
2023/06/26 05:08:51;;;;;;;10.35;5.57;;;;;;;28.28;nan;62778.94;5071141;28;20260;-62
2023/06/26 05:11:17;;;;;;;12.30;5.95;;;;;;;28.18;nan;62718.09;5080122;28;20529;-62
2023/06/26 05:13:42;;;;;;;9.20;5.70;;;;;;;28.44;nan;62715.75;5091540;28;20493;-62
2023/06/26 05:16:09;;;;;;;10.95;5.50;;;;;;;27.79;nan;62639.78;5095090;28;20267;-63
2023/06/26 05:18:35;;;;;;;8.90;5.50;;;;;;;27.92;nan;62633.09;5095347;28;20203;-62
2023/06/26 05:21:01;;;;;;;9.68;5.40;;;;;;;28.79;nan;62824.31;5095589;28;20177;-62
2023/06/26 05:23:27;;;;;;;8.65;5.28;;;;;;;27.58;nan;62741.81;5095184;28;20634;-62
2023/06/26 05:25:52;;;;;;;13.43;5.68;;;;;;;27.09;nan;62518.25;5095087;28;20257;-63
2023/06/26 05:28:18;;;;;;;9.10;5.50;;;;;;;27.15;nan;62643.19;5095259;28;20173;-62
2023/06/26 05:30:44;;;;;;;10.10;5.88;;;;;;;27.63;nan;62698.22;5094753;28;20556;-64
2023/06/26 05:33:17;;;;;;;8.85;5.53;;;;;;;27.67;nan;62776.34;5083889;28;20173;-63
2023/06/26 05:35:44;;;;;;;9.82;5.40;;;;;;;27.84;nan;62758.50;5080031;28;20180;-62
2023/06/26 05:38:10;;;;;;;8.00;5.20;;;;;;;27.42;nan;62682.00;5075009;28;20754;-63
2023/06/26 05:40:36;;;;;;;10.23;5.30;;;;;;;27.23;nan;62608.34;5089511;28;20273;-64
2023/06/26 05:43:02;;;;;;;11.60;5.70;;;;;;;27.31;nan;62611.09;5093967;28;20177;-63
2023/06/26 05:45:27;;;;;;;9.15;5.65;;;;;;;27.67;nan;62805.25;5094766;28;20177;-63
2023/06/26 05:47:53;;;;;;;8.68;4.75;;;;;;;28.72;nan;62842.00;5092940;28;20234;-63
2023/06/26 05:50:19;;;;;;;9.68;5.50;;;;;;;28.39;nan;62791.56;5094531;28;20287;-63
2023/06/26 05:52:45;;;;;;;10.00;4.50;;;;;;;27.74;nan;62765.44;5094319;28;20165;-63
2023/06/26 05:55:12;;;;;;;8.02;4.93;;;;;;;27.48;nan;62680.44;5094510;28;20181;-63
2023/06/26 05:57:39;;;;;;;8.02;4.53;;;;;;;26.88;nan;62843.13;5093900;28;20197;-62
2023/06/26 06:00:10;;;;;;;8.98;5.30;;;;;;;27.12;nan;62621.97;5095244;28;20169;-63
2023/06/26 06:02:36;;;;;;;9.50;5.15;;;;;;;27.52;nan;62646.22;5094736;28;20331;-63
2023/06/26 06:05:02;;;;;;;8.38;5.60;;;;;;;26.85;nan;62528.09;5094831;28;20166;-62
2023/06/26 06:07:27;;;;;;;11.45;4.80;;;;;;;26.74;nan;62607.28;5094915;28;20303;-63
2023/06/26 06:09:52;;;;;;;7.47;4.53;;;;;;;27.22;nan;62583.56;5094762;28;20168;-63
2023/06/26 06:12:18;;;;;;;10.80;5.15;;;;;;;26.88;nan;62510.56;5094901;28;20174;-62
2023/06/26 06:14:43;;;;;;;8.25;5.15;;;;;;;26.53;nan;62433.81;5095137;28;20161;-63
2023/06/26 06:17:09;;;;;;;10.27;5.65;;;;;;;26.99;nan;62693.09;5094724;28;20257;-63
2023/06/26 06:19:34;;;;;;;7.05;4.60;;;;;;;26.37;nan;62573.38;5094963;28;20177;-63
2023/06/26 06:22:00;;;;;;;8.57;4.75;;;;;;;26.41;nan;62737.25;5094769;28;20161;-62
2023/06/26 06:24:25;;;;;;;12.13;5.03;;;;;;;26.22;nan;62440.91;5094647;28;20617;-62
2023/06/26 06:26:50;;;;;;;8.73;4.85;;;;;;;26.41;nan;62524.94;5094777;28;20170;-62
2023/06/26 06:29:16;;;;;;;9.02;5.45;;;;;;;26.34;nan;62575.75;5094504;28;20171;-62
2023/06/26 06:31:41;;;;;;;9.23;5.15;;;;;;;26.21;nan;62476.44;5093292;28;20201;-62
2023/06/26 06:34:06;;;;;;;9.85;5.15;;;;;;;26.14;nan;62411.34;5094397;28;20173;-62
2023/06/26 06:36:32;;;;;;;8.52;5.05;;;;;;;26.08;nan;62391.41;5094307;28;20709;-63
2023/06/26 06:38:57;;;;;;;8.88;5.03;;;;;;;25.82;nan;62390.50;5094601;28;20159;-63
2023/06/26 06:41:23;;;;;;;7.68;4.90;;;;;;;25.71;nan;62349.72;5094600;28;20612;-63
2023/06/26 06:43:48;;;;;;;7.90;5.20;;;;;;;25.91;nan;62715.66;5094795;28;20222;-63
2023/06/26 06:46:14;;;;;;;14.98;7.15;;;;;;;25.96;nan;62537.47;5094335;28;20174;-63
2023/06/26 06:48:39;;;;;;;8.80;5.95;;;;;;;25.67;nan;62476.06;5094099;28;20520;-63
2023/06/26 06:51:04;;;;;;;11.95;7.30;;;;;;;26.25;nan;62412.91;5094156;28;20212;-63
2023/06/26 06:53:31;;;;;;;12.77;6.45;;;;;;;26.21;nan;62555.63;5093717;28;20192;-62
2023/06/26 06:55:56;;;;;;;8.10;5.07;;;;;;;25.67;nan;62504.28;5093979;28;20246;-62
2023/06/26 06:58:22;;;;;;;8.15;4.43;;;;;;;26.63;nan;62508.19;5093657;28;20692;-64
2023/06/26 07:00:48;;;;;;;10.52;5.35;;;;;;;26.50;nan;62470.28;5093639;28;20181;-62
2023/06/26 07:03:14;;;;;;;9.27;6.13;;;;;;;26.63;nan;62634.63;5093784;28;20725;-62
2023/06/26 07:05:41;;;;;;;11.00;5.63;;;;;;;26.81;nan;62537.22;5093882;28;20180;-63
2023/06/26 07:08:07;;;;;;;7.32;4.63;;;;;;;27.12;nan;62645.59;5093514;28;20268;-64
2023/06/26 07:10:32;;;;;;;8.02;5.35;;;;;;;27.14;nan;62631.56;5094091;28;20646;-63
2023/06/26 07:12:58;;;;;;;11.30;5.30;;;;;;;26.87;nan;62525.16;5094056;28;20180;-63
2023/06/26 07:15:23;;;;;;;7.25;4.72;;;;;;;27.00;nan;62592.50;5093675;28;20303;-64
2023/06/26 07:17:48;;;;;;;7.07;4.18;;;;;;;27.15;nan;62620.16;5093085;28;20225;-63
2023/06/26 07:20:17;;;;;;;8.52;4.63;;;;;;;27.00;nan;62746.72;5093550;28;20180;-62
2023/06/26 07:22:43;;;;;;;6.63;4.60;;;;;;;27.35;nan;62623.53;5094263;28;20256;-63
2023/06/26 07:25:09;;;;;;;7.72;4.63;;;;;;;27.38;nan;62595.47;5093567;28;20212;-63
2023/06/26 07:27:35;;;;;;;6.70;3.72;;;;;;;27.62;nan;62646.59;5093858;28;20204;-63
2023/06/26 07:30:01;;;;;;;8.35;4.38;;;;;;;28.23;nan;62815.25;4803705;28;21023;-64
2023/06/26 07:32:26;;;;;;;7.97;5.00;;;;;;;28.49;nan;62818.78;5090352;28;20172;-63
2023/06/26 07:34:52;;;;;;;6.55;4.25;;;;;;;28.95;nan;62853.19;5093457;28;20171;-63
2023/06/26 07:37:17;;;;;;;6.20;4.35;;;;;;;29.58;nan;63003.44;5092036;28;20199;-62
2023/06/26 07:39:43;;;;;;;6.30;3.90;;;;;;;29.36;nan;63157.25;5093131;28;20200;-63
2023/06/26 07:42:08;;;;;;;5.90;4.07;;;;;;;29.11;nan;62894.09;5093041;28;20699;-64
2023/06/26 07:44:34;;;;;;;8.27;4.18;;;;;;;29.88;nan;62991.97;5092872;28;20169;-64
2023/06/26 07:46:59;;;;;;;6.40;4.10;;;;;;;30.16;nan;63040.00;5093157;28;20172;-63
2023/06/26 07:49:25;;;;;;;5.95;3.88;;;;;;;30.26;nan;63030.97;5092793;28;20165;-63
2023/06/26 07:51:50;;;;;;;5.60;3.58;;;;;;;30.20;nan;63131.63;5092758;28;20168;-63
2023/06/26 07:54:15;;;;;;;5.60;3.90;;;;;;;30.28;nan;63027.44;5092634;28;20554;-63
2023/06/26 07:56:54;;;;;;;6.10;3.63;;;;;;;30.03;nan;63004.53;5092592;28;20165;-63
2023/06/26 07:59:20;;;;;;;7.47;4.55;;;;;;;29.99;nan;63065.28;5092717;28;20227;-63
2023/06/26 08:01:46;;;;;;;5.20;3.83;;;;;;;29.56;nan;62942.59;5092173;28;20645;-64
2023/06/26 08:04:11;;;;;;;5.95;3.95;;;;;;;29.23;nan;63000.63;5092473;28;20628;-63
2023/06/26 08:06:40;;;;;;;6.32;3.92;;;;;;;29.10;nan;62933.00;5092630;28;20173;-62
2023/06/26 08:09:07;;;;;;;6.53;4.47;;;;;;;28.93;nan;62811.44;5092550;28;20181;-63
2023/06/26 08:11:33;;;;;;;8.38;3.92;;;;;;;28.86;nan;62811.28;5092441;28;20176;-62
2023/06/26 08:13:58;;;;;;;7.10;4.20;;;;;;;28.54;nan;62745.63;5092725;28;20177;-63
2023/06/26 08:16:23;;;;;;;6.95;4.22;;;;;;;28.35;nan;62737.56;5092415;28;20169;-63
2023/06/26 08:18:49;;;;;;;8.50;4.20;;;;;;;28.22;nan;62862.00;5092305;28;20203;-63
2023/06/26 08:21:14;;;;;;;6.53;4.05;;;;;;;28.04;nan;62647.41;5092385;28;20554;-63
2023/06/26 08:23:40;;;;;;;7.90;4.30;;;;;;;28.19;nan;63047.25;5092993;28;20165;-62
2023/06/26 08:26:05;;;;;;;7.50;4.20;;;;;;;24.86;nan;63534.56;5092653;28;20172;-63
2023/06/26 08:28:30;;;;;;;6.22;4.20;;;;;;;28.20;nan;62717.75;5093063;28;20175;-62
2023/06/26 08:30:56;;;;;;;7.32;4.47;;;;;;;28.43;nan;62798.78;5092208;28;20169;-63
2023/06/26 08:33:21;;;;;;;6.65;4.55;;;;;;;28.65;nan;62847.69;5092093;28;20260;-64
2023/06/26 08:35:46;;;;;;;6.95;4.10;;;;;;;28.59;nan;62877.63;5090923;28;20632;-62
2023/06/26 08:38:12;;;;;;;7.60;4.55;;;;;;;28.72;nan;62734.13;5091443;28;20204;-63
2023/06/26 08:40:38;;;;;;;5.93;4.00;;;;;;;29.11;nan;62796.69;5091308;28;20226;-63
2023/06/26 08:43:04;;;;;;;6.22;4.10;;;;;;;29.21;nan;62866.09;5090975;28;20521;-62
2023/06/26 08:45:29;;;;;;;6.22;3.83;;;;;;;29.42;nan;62898.69;5090878;28;20746;-63
2023/06/26 08:47:59;;;;;;;6.95;4.55;;;;;;;29.47;nan;62911.75;5091084;28;20211;-63
2023/06/26 08:50:30;;;;;;;6.63;4.40;;;;;;;29.42;nan;63017.22;5091160;28;20568;-63
2023/06/26 08:53:25;;;;;;;5.22;3.72;;;;;;;29.79;nan;62987.47;5092045;28;20176;-63
2023/06/26 08:55:53;;;;;;;5.47;3.92;;;;;;;29.67;nan;62963.72;5089360;28;20180;-63
2023/06/26 08:58:19;;;;;;;5.70;3.75;;;;;;;29.96;nan;62935.28;5090100;28;20196;-63
2023/06/26 09:00:44;;;;;;;5.80;3.60;;;;;;;30.12;nan;63025.44;5091691;28;20186;-62
2023/06/26 09:03:10;;;;;;;6.35;3.60;;;;;;;30.17;nan;63012.72;5091281;28;20699;-63
2023/06/26 09:05:36;;;;;;;5.60;3.65;;;;;;;31.01;nan;63186.84;5091491;28;20169;-62
2023/06/26 09:08:02;;;;;;;5.28;3.40;;;;;;;31.18;nan;63222.28;5091557;28;20222;-63
2023/06/26 09:10:27;;;;;;;5.20;3.90;;;;;;;30.65;nan;63280.56;5091398;28;20168;-62
2023/06/26 09:12:57;;;;;;;7.68;3.55;;;;;;;31.23;nan;63214.84;5091335;28;20229;-63
2023/06/26 09:15:23;;;;;;;6.68;3.50;;;;;;;31.04;nan;63293.88;5091316;28;20635;-62
2023/06/26 09:17:49;;;;;;;6.90;3.90;;;;;;;30.93;nan;63122.19;5091028;28;20200;-63
2023/06/26 09:20:15;;;;;;;5.65;3.70;;;;;;;29.59;nan;63073.09;5091470;28;20251;-63
2023/06/26 09:22:42;;;;;;;7.20;3.75;;;;;;;29.80;nan;63065.63;5091218;28;20257;-62
2023/06/26 09:25:09;;;;;;;5.70;3.65;;;;;;;29.81;nan;62940.28;5091316;28;20252;-62
2023/06/26 09:27:38;;;;;;;5.63;3.25;;;;;;;29.39;nan;63026.38;5090906;28;20259;-62
2023/06/26 09:30:04;;;;;;;5.35;2.95;;;;;;;29.29;nan;62910.09;5089689;28;20550;-63
2023/06/26 09:32:29;;;;;;;7.55;3.58;;;;;;;28.67;nan;62776.31;5090304;28;20189;-63
2023/06/26 09:35:00;;;;;;;5.60;3.38;;;;;;;28.22;nan;62953.44;5091374;28;20173;-63
2023/06/26 09:37:26;;;;;;;4.68;3.15;;;;;;;28.85;nan;62828.00;5091446;28;20265;-64
2023/06/26 09:39:52;;;;;;;6.90;4.13;;;;;;;26.94;nan;62598.16;5091393;28;20252;-63
2023/06/26 09:42:18;;;;;;;7.78;4.40;;;;;;;27.51;nan;62778.44;5091655;28;20195;-63
2023/06/26 09:44:45;;;;;;;8.45;4.22;;;;;;;26.59;nan;62543.50;5091503;28;20196;-64
2023/06/26 09:47:11;;;;;;;6.82;3.67;;;;;;;26.22;nan;62368.09;5091422;28;20567;-63
2023/06/26 09:49:36;;;;;;;6.43;3.97;;;;;;;26.13;nan;62393.91;5091399;28;20169;-64
2023/06/26 09:52:02;;;;;;;6.07;3.47;;;;;;;25.05;nan;62159.91;5091112;28;20652;-63
2023/06/26 09:54:30;;;;;;;6.75;3.72;;;;;;;24.98;nan;62314.59;5090721;28;20256;-63
2023/06/26 09:57:06;;;;;;;5.65;3.83;;;;;;;25.01;nan;62200.38;5090729;28;20201;-62
2023/06/26 09:59:32;;;;;;;6.55;4.18;;;;;;;24.97;nan;62137.72;5090238;28;20705;-63
2023/06/26 10:02:00;;;;;;;5.57;3.92;;;;;;;24.50;nan;61967.19;5093972;28;20260;-62
2023/06/26 10:04:25;;;;;;;10.30;3.95;;;;;;;24.55;nan;62132.81;5094319;28;20246;-62
2023/06/26 10:06:55;;;;;;;7.03;4.10;;;;;;;24.27;nan;62309.31;5094575;28;20624;-62
2023/06/26 10:09:23;;;;;;;7.63;4.30;;;;;;;24.29;nan;62210.31;5093298;28;20189;-62
2023/06/26 10:12:00;;;;;;;7.03;4.28;;;;;;;24.94;nan;62186.59;5094253;28;20286;-62
2023/06/26 10:14:27;;;;;;;8.00;4.72;;;;;;;25.33;nan;62217.38;5094396;28;20222;-62
2023/06/26 10:17:01;;;;;;;11.98;5.72;;;;;;;25.64;nan;62301.91;5093902;28;20628;-61
2023/06/26 10:19:28;;;;;;;12.82;8.00;;;;;;;25.92;nan;62326.56;5093963;28;20648;-63
2023/06/26 10:21:54;;;;;;;15.90;8.95;;;;;;;26.15;nan;62559.22;5093695;28;20235;-63
2023/06/26 10:24:22;;;;;;;13.88;8.00;;;;;;;26.63;nan;62760.47;5094328;28;20176;-62
2023/06/26 10:26:51;;;;;;;10.50;6.70;;;;;;;27.08;nan;62527.63;5093809;28;20644;-63
2023/06/26 10:29:19;;;;;;;10.00;5.93;;;;;;;27.66;nan;62667.50;5093908;28;20728;-64
2023/06/26 10:31:51;;;;;;;8.50;5.18;;;;;;;28.09;nan;62697.81;5092752;28;20180;-63
2023/06/26 10:34:17;;;;;;;7.78;4.00;;;;;;;28.61;nan;62916.19;5093339;28;20261;-63
2023/06/26 10:36:42;;;;;;;6.55;3.92;;;;;;;29.31;nan;62930.84;5093892;28;20169;-63
2023/06/26 10:39:08;;;;;;;5.65;3.72;;;;;;;29.79;nan;62958.47;5093919;28;20168;-63
2023/06/26 10:41:38;;;;;;;5.97;3.67;;;;;;;29.98;nan;63135.88;5093390;28;20238;-63
2023/06/26 10:44:11;;;;;;;6.15;3.70;;;;;;;30.00;nan;63259.47;5093447;28;20198;-63
2023/06/26 10:46:53;;;;;;;8.50;4.20;;;;;;;29.93;nan;63047.81;5093338;28;20163;-61
2023/06/26 10:49:20;;;;;;;6.57;3.80;;;;;;;30.02;nan;63040.28;5093561;28;20179;-62
2023/06/26 10:51:50;;;;;;;6.13;4.28;;;;;;;30.45;nan;63078.66;5093436;28;20624;-62
2023/06/26 10:54:20;;;;;;;7.18;3.60;;;;;;;30.86;nan;63082.44;5093633;28;20191;-63
2023/06/26 10:56:47;;;;;;;5.13;3.63;;;;;;;31.04;nan;63225.22;5093598;28;20230;-62
2023/06/26 10:59:17;;;;;;;5.45;3.67;;;;;;;31.79;nan;63257.09;5093210;28;20169;-62
2023/06/26 11:01:44;;;;;;;4.93;3.50;;;;;;;31.83;nan;63274.91;5093269;28;20220;-63
2023/06/26 11:04:10;;;;;;;5.20;3.13;;;;;;;32.35;nan;63401.06;5093547;28;20164;-63
2023/06/26 11:06:41;;;;;;;4.78;3.20;;;;;;;32.27;nan;63346.84;5093512;28;20616;-62
2023/06/26 11:09:13;;;;;;;4.55;3.22;;;;;;;32.54;nan;63515.06;5093535;28;20161;-62
2023/06/26 11:11:54;;;;;;;4.80;3.10;;;;;;;32.91;nan;63559.94;5092801;28;20208;-62
2023/06/26 11:14:21;;;;;;;4.20;2.97;;;;;;;32.93;nan;63609.94;5092129;28;20212;-62
2023/06/26 11:16:48;;;;;;;4.88;3.10;;;;;;;32.40;nan;63467.13;5093232;28;20717;-62
2023/06/26 11:19:16;;;;;;;4.80;2.97;;;;;;;32.26;nan;63372.16;5093194;28;20179;-63
2023/06/26 11:21:41;;;;;;;4.65;3.20;;;;;;;31.81;nan;63301.72;5093113;28;20208;-63
2023/06/26 11:24:07;;;;;;;4.43;3.03;;;;;;;31.41;nan;63248.78;5093163;28;20294;-63
2023/06/26 11:26:39;;;;;;;4.32;3.00;;;;;;;30.85;nan;63160.47;5092986;28;20176;-63
2023/06/26 11:29:05;;;;;;;5.05;3.30;;;;;;;30.63;nan;63117.25;5093067;28;20173;-62
2023/06/26 11:31:32;;;;;;;4.95;3.28;;;;;;;30.06;nan;63055.44;5092884;28;20164;-63
2023/06/26 11:34:03;;;;;;;5.95;3.38;;;;;;;29.09;nan;63081.94;5092098;28;20572;-63
2023/06/26 11:36:30;;;;;;;5.30;3.20;;;;;;;28.72;nan;62781.50;5092841;28;20267;-63
2023/06/26 11:39:00;;;;;;;7.78;3.45;;;;;;;27.32;nan;62560.31;5092655;28;20324;-63
2023/06/26 11:41:33;;;;;;;5.50;3.60;;;;;;;26.35;nan;62477.31;5092954;28;20211;-63
2023/06/26 11:44:05;;;;;;;6.60;3.35;;;;;;;25.66;nan;62414.72;5092593;28;20173;-63
2023/06/26 11:46:31;;;;;;;6.18;3.80;;;;;;;25.04;nan;62349.66;5092768;28;20204;-63